Time;durP1;ratioP1;P1;durP2;ratioP2;P2;SDS_P1;SDS_P2;PMS_P1;PMS_P2;Temp;Humidity;BMP_temperature;BMP_pressure;BME280_temperature;BME280_humidity;BME280_pressure;Samples;Min_cycle;Max_cycle;Signal;HPM_P1;HPM_P2
2023/01/26 00:00:45;;;;;;;1.02;0.98;;;;;;;;;;5015720;28;20049;-84
2023/01/26 00:03:12;;;;;;;2.58;2.30;;;;;;;;;;5016144;28;20549;-84
2023/01/26 00:05:38;;;;;;;3.30;1.75;;;;;;;;;;5015892;28;20104;-84
2023/01/26 00:08:05;;;;;;;3.17;2.72;;;;;;;;;;5015896;28;20053;-84
2023/01/26 00:10:31;;;;;;;2.78;2.58;;;;;;;;;;5015587;28;20069;-84
2023/01/26 00:12:59;;;;;;;2.20;2.10;;;;;;;;;;5015588;28;20050;-83
2023/01/26 00:15:26;;;;;;;1.55;1.45;;;;;;;;;;5015162;28;20092;-84
2023/01/26 00:17:52;;;;;;;1.05;1.05;;;;;;;;;;5015107;28;20523;-84
2023/01/26 00:20:19;;;;;;;1.90;1.80;;;;;;;;;;5015429;28;20084;-84
2023/01/26 00:22:45;;;;;;;2.65;2.45;;;;;;;;;;5015325;28;20112;-84
2023/01/26 00:25:12;;;;;;;2.60;1.48;;;;;;;;;;5015734;28;20050;-84
2023/01/26 00:27:38;;;;;;;1.45;1.35;;;;;;;;;;5015317;28;20046;-83
2023/01/26 00:30:07;;;;;;;4.30;1.88;;;;;;;;;;5015528;28;20057;-84
2023/01/26 00:32:34;;;;;;;1.20;1.15;;;;;;;;;;5015251;28;20081;-85
2023/01/26 00:35:01;;;;;;;1.08;1.08;;;;;;;;;;5015508;28;20053;-84
2023/01/26 00:37:27;;;;;;;1.98;1.83;;;;;;;;;;5014466;28;20057;-84
2023/01/26 00:39:54;;;;;;;1.85;1.42;;;;;;;;;;5015064;28;20104;-84
2023/01/26 00:42:22;;;;;;;3.05;2.85;;;;;;;;;;5014804;28;20466;-84
2023/01/26 00:44:49;;;;;;;2.08;1.98;;;;;;;;;;5014788;28;20495;-84
2023/01/26 00:47:18;;;;;;;3.17;2.97;;;;;;;;;;5014565;28;20557;-85
2023/01/26 00:49:44;;;;;;;2.45;2.25;;;;;;;;;;5015139;28;20124;-84
2023/01/26 00:52:11;;;;;;;1.90;1.80;;;;;;;;;;5014967;28;20124;-84
2023/01/26 00:54:38;;;;;;;2.53;1.73;;;;;;;;;;5015300;28;20455;-84
2023/01/26 00:57:04;;;;;;;0.60;0.60;;;;;;;;;;5015174;28;20058;-84
2023/01/26 00:59:31;;;;;;;1.95;0.73;;;;;;;;;;5014428;28;20437;-83
2023/01/26 01:02:00;;;;;;;0.90;0.90;;;;;;;;;;5014794;28;20137;-84
2023/01/26 01:04:28;;;;;;;3.42;3.33;;;;;;;;;;5014674;28;20499;-83
2023/01/26 01:06:55;;;;;;;1.35;1.25;;;;;;;;;;5014529;28;20053;-84
2023/01/26 01:09:21;;;;;;;2.70;2.05;;;;;;;;;;5014476;28;20474;-84
2023/01/26 01:11:48;;;;;;;1.55;1.45;;;;;;;;;;5014860;28;20053;-84
2023/01/26 01:14:14;;;;;;;0.50;0.40;;;;;;;;;;5014285;28;20053;-84
2023/01/26 01:16:41;;;;;;;1.58;1.48;;;;;;;;;;5014885;28;20120;-84
2023/01/26 01:19:08;;;;;;;0.75;0.75;;;;;;;;;;5014814;28;20050;-84
2023/01/26 01:21:36;;;;;;;1.38;1.27;;;;;;;;;;5014794;28;20050;-84
2023/01/26 01:24:03;;;;;;;0.75;0.75;;;;;;;;;;5014312;28;20124;-84
2023/01/26 01:26:29;;;;;;;1.10;1.10;;;;;;;;;;5014519;28;20148;-85
2023/01/26 01:28:56;;;;;;;1.58;1.48;;;;;;;;;;5012838;28;20450;-84
2023/01/26 01:31:23;;;;;;;1.48;1.38;;;;;;;;;;5014176;28;20046;-84
2023/01/26 01:33:50;;;;;;;2.08;1.98;;;;;;;;;;5014379;28;20103;-84
2023/01/26 01:36:17;;;;;;;1.75;1.65;;;;;;;;;;5014174;28;20454;-84
2023/01/26 01:38:45;;;;;;;2.03;1.92;;;;;;;;;;5014628;28;20054;-84
2023/01/26 01:41:13;;;;;;;2.78;2.58;;;;;;;;;;5014111;28;20050;-84
2023/01/26 01:43:39;;;;;;;1.50;1.33;;;;;;;;;;5014017;28;20507;-84
2023/01/26 01:46:07;;;;;;;1.52;1.42;;;;;;;;;;5014361;28;20057;-84
2023/01/26 01:48:37;;;;;;;1.00;0.90;;;;;;;;;;5013884;28;20058;-84
2023/01/26 01:51:05;;;;;;;2.58;1.83;;;;;;;;;;5013999;28;20061;-84
2023/01/26 01:53:33;;;;;;;0.93;0.93;;;;;;;;;;5014118;28;20108;-84
2023/01/26 01:56:02;;;;;;;0.65;0.65;;;;;;;;;;5013933;28;20406;-84
2023/01/26 01:58:29;;;;;;;2.38;1.38;;;;;;;;;;5013917;28;20050;-84
2023/01/26 02:00:57;;;;;;;1.58;1.48;;;;;;;;;;5013863;28;20053;-84
2023/01/26 02:03:25;;;;;;;3.50;3.30;;;;;;;;;;5014107;28;20506;-85
2023/01/26 02:05:54;;;;;;;0.80;0.80;;;;;;;;;;5013807;28;20058;-84
2023/01/26 02:08:22;;;;;;;1.98;1.88;;;;;;;;;;5013730;28;20136;-85
2023/01/26 02:10:50;;;;;;;0.95;0.88;;;;;;;;;;5013081;28;20046;-84
2023/01/26 02:13:18;;;;;;;1.90;1.58;;;;;;;;;;5013936;28;20045;-85
2023/01/26 02:15:45;;;;;;;0.60;0.60;;;;;;;;;;5013727;28;20465;-84
2023/01/26 02:18:11;;;;;;;1.50;1.40;;;;;;;;;;5014082;28;20109;-84
2023/01/26 02:20:43;;;;;;;1.15;0.85;;;;;;;;;;5013598;28;20054;-84
2023/01/26 02:23:15;;;;;;;0.50;0.50;;;;;;;;;;5013834;28;20104;-84
2023/01/26 02:25:44;;;;;;;1.52;1.42;;;;;;;;;;5013188;28;20104;-84
2023/01/26 02:28:12;;;;;;;4.82;4.63;;;;;;;;;;5013571;28;20096;-84
2023/01/26 02:30:39;;;;;;;1.10;1.10;;;;;;;;;;5013350;28;20500;-85
2023/01/26 02:33:05;;;;;;;1.67;1.58;;;;;;;;;;5013936;28;20046;-84
2023/01/26 02:35:32;;;;;;;0.85;0.85;;;;;;;;;;5013177;28;20053;-84
2023/01/26 02:37:58;;;;;;;1.55;1.45;;;;;;;;;;5014159;28;20458;-85
2023/01/26 02:40:30;;;;;;;1.40;1.30;;;;;;;;;;5014577;28;20049;-84
2023/01/26 02:42:55;;;;;;;0.90;0.90;;;;;;;;;;5017732;28;20054;-84
2023/01/26 02:45:23;;;;;;;0.88;0.88;;;;;;;;;;5018362;28;20529;-84
2023/01/26 02:47:50;;;;;;;3.47;1.98;;;;;;;;;;5017596;28;20519;-84
2023/01/26 02:50:16;;;;;;;1.95;1.83;;;;;;;;;;5021446;28;20107;-85
2023/01/26 02:52:42;;;;;;;1.15;1.10;;;;;;;;;;5028147;28;20046;-84
2023/01/26 02:55:25;;;;;;;3.35;2.63;;;;;;;;;;5028336;28;20194;-84
2023/01/26 02:57:52;;;;;;;1.13;1.00;;;;;;;;;;5028104;28;20654;-84
2023/01/26 03:00:19;;;;;;;0.93;0.93;;;;;;;;;;5028726;28;20050;-85
2023/01/26 03:02:47;;;;;;;1.50;1.40;;;;;;;;;;5027876;28;20096;-85
2023/01/26 03:05:14;;;;;;;5.57;1.83;;;;;;;;;;5027804;28;20042;-85
2023/01/26 03:07:40;;;;;;;1.20;1.15;;;;;;;;;;5016986;28;20046;-85
2023/01/26 03:10:07;;;;;;;1.63;1.52;;;;;;;;;;5017197;28;20050;-84
2023/01/26 03:12:34;;;;;;;1.67;1.55;;;;;;;;;;5017001;28;20054;-84
2023/01/26 03:17:44;;;;;;;0.88;0.88;;;;;;;;;;5017240;28;20160;-85
2023/01/26 03:28:24;;;;;;;1.23;1.23;;;;;;;;;;5016713;28;20100;-84
2023/01/26 03:30:52;;;;;;;0.90;0.90;;;;;;;;;;5015876;28;20092;-84
2023/01/26 03:33:18;;;;;;;1.02;0.93;;;;;;;;;;5016692;28;20041;-84
2023/01/26 03:35:47;;;;;;;0.88;0.85;;;;;;;;;;5016558;28;20050;-84
2023/01/26 03:38:13;;;;;;;2.00;1.88;;;;;;;;;;5015941;28;20552;-84
2023/01/26 03:57:06;;;;;;;0.93;0.93;;;;;;;;;;5012445;28;20053;-84
2023/01/26 03:59:38;;;;;;;1.88;0.85;;;;;;;;;;4996461;28;20046;-84
2023/01/26 04:10:18;;;;;;;3.25;1.33;;;;;;;;;;5015985;28;20039;-84
2023/01/26 04:12:54;;;;;;;;;;;;;;;;;;;;;
2023/01/26 04:23:33;;;;;;;1.38;1.27;;;;;;;;;;5015450;28;20053;-85
2023/01/26 04:26:01;;;;;;;0.98;0.98;;;;;;;;;;5015247;28;20046;-85
2023/01/26 04:28:27;;;;;;;2.97;2.78;;;;;;;;;;5015477;28;20459;-85
2023/01/26 04:30:54;;;;;;;1.35;1.33;;;;;;;;;;5015195;28;20132;-84
2023/01/26 04:33:20;;;;;;;0.90;0.90;;;;;;;;;;5015139;28;20115;-85
2023/01/26 04:35:47;;;;;;;2.00;1.90;;;;;;;;;;5015042;28;20459;-85
2023/01/26 04:38:13;;;;;;;1.35;1.30;;;;;;;;;;5014897;28;20096;-84
2023/01/26 04:40:40;;;;;;;2.70;2.53;;;;;;;;;;5014775;28;20501;-85
2023/01/26 04:43:08;;;;;;;2.40;1.42;;;;;;;;;;5014569;28;20119;-84
2023/01/26 04:45:34;;;;;;;1.73;1.63;;;;;;;;;;5014822;28;20120;-84
2023/01/26 04:48:01;;;;;;;4.40;1.42;;;;;;;;;;5015052;28;20107;-84
2023/01/26 04:50:27;;;;;;;2.58;2.38;;;;;;;;;;5014675;28;20042;-84
2023/01/26 04:52:54;;;;;;;1.95;1.55;;;;;;;;;;5014858;28;20112;-84
2023/01/26 04:55:20;;;;;;;0.88;0.88;;;;;;;;;;5014680;28;20050;-84
2023/01/26 04:57:46;;;;;;;0.80;0.80;;;;;;;;;;5014848;28;20495;-84
2023/01/26 05:00:15;;;;;;;0.73;0.65;;;;;;;;;;5014880;28;20046;-84
2023/01/26 05:02:41;;;;;;;1.35;1.25;;;;;;;;;;5014431;28;20471;-84
2023/01/26 05:05:08;;;;;;;0.80;0.80;;;;;;;;;;5014548;28;20050;-84
2023/01/26 05:07:35;;;;;;;1.05;1.05;;;;;;;;;;5014691;28;20248;-84
2023/01/26 05:10:01;;;;;;;2.08;1.90;;;;;;;;;;5013909;28;20420;-84
2023/01/26 05:12:33;;;;;;;0.57;0.57;;;;;;;;;;5014563;28;20041;-84
2023/01/26 05:15:00;;;;;;;1.02;0.60;;;;;;;;;;5014491;28;20387;-84
2023/01/26 05:17:28;;;;;;;1.17;1.13;;;;;;;;;;5014459;28;20053;-84
2023/01/26 05:19:54;;;;;;;1.52;1.42;;;;;;;;;;5014481;28;20057;-84
2023/01/26 05:22:21;;;;;;;0.55;0.55;;;;;;;;;;5014459;28;20101;-84
2023/01/26 05:24:47;;;;;;;0.82;0.82;;;;;;;;;;5013868;28;20128;-84
2023/01/26 05:27:23;;;;;;;7.15;2.05;;;;;;;;;;5014250;28;20389;-85
2023/01/26 05:29:50;;;;;;;1.80;1.70;;;;;;;;;;5013801;28;20104;-84
2023/01/26 05:32:16;;;;;;;1.52;1.42;;;;;;;;;;5013911;28;20062;-84
2023/01/26 05:34:44;;;;;;;1.67;1.58;;;;;;;;;;5014222;28;20076;-84
2023/01/26 05:37:11;;;;;;;2.10;1.92;;;;;;;;;;5013706;28;20112;-84
2023/01/26 05:39:37;;;;;;;6.53;1.75;;;;;;;;;;5014125;28;20045;-84
2023/01/26 05:42:04;;;;;;;0.85;0.85;;;;;;;;;;5014053;28;20561;-84
2023/01/26 05:44:30;;;;;;;0.95;0.95;;;;;;;;;;5014228;28;20104;-84
2023/01/26 05:46:57;;;;;;;1.88;1.00;;;;;;;;;;5014399;28;20570;-84
2023/01/26 05:49:23;;;;;;;1.60;1.50;;;;;;;;;;5015723;28;20050;-85
2023/01/26 05:51:51;;;;;;;2.70;2.50;;;;;;;;;;5014388;28;20058;-84
2023/01/26 05:54:18;;;;;;;2.17;1.90;;;;;;;;;;5013794;28;20046;-84
2023/01/26 05:56:44;;;;;;;1.25;1.25;;;;;;;;;;5013809;28;20100;-84
2023/01/26 05:59:11;;;;;;;0.65;0.65;;;;;;;;;;5013455;28;20053;-84
2023/01/26 06:01:38;;;;;;;0.63;0.63;;;;;;;;;;5013311;28;20388;-84
2023/01/26 06:04:04;;;;;;;1.08;1.00;;;;;;;;;;5013750;28;20128;-84
2023/01/26 06:06:31;;;;;;;1.25;1.20;;;;;;;;;;5013891;28;20053;-84
2023/01/26 06:08:59;;;;;;;1.55;1.45;;;;;;;;;;5013260;28;20050;-84
2023/01/26 06:11:25;;;;;;;2.92;2.13;;;;;;;;;;5013825;28;20058;-84
2023/01/26 06:13:52;;;;;;;1.45;1.35;;;;;;;;;;5013236;28;20096;-83
2023/01/26 06:16:18;;;;;;;1.75;1.65;;;;;;;;;;5013143;28;20100;-84
2023/01/26 06:18:47;;;;;;;3.25;2.95;;;;;;;;;;5014083;28;20162;-84
2023/01/26 06:21:14;;;;;;;1.15;1.05;;;;;;;;;;5013455;28;20046;-85
2023/01/26 06:23:40;;;;;;;1.35;1.25;;;;;;;;;;5011407;28;20108;-85
2023/01/26 06:26:08;;;;;;;1.13;1.13;;;;;;;;;;5013312;28;20104;-86
2023/01/26 06:28:35;;;;;;;1.83;1.73;;;;;;;;;;5012023;28;20046;-85
2023/01/26 06:31:02;;;;;;;1.73;1.27;;;;;;;;;;5012676;28;20558;-84
2023/01/26 06:33:28;;;;;;;1.67;1.23;;;;;;;;;;5013110;28;20054;-85
2023/01/26 06:35:55;;;;;;;3.10;2.25;;;;;;;;;;5012919;28;20400;-84
2023/01/26 06:38:22;;;;;;;2.28;2.17;;;;;;;;;;5012743;28;20474;-85
2023/01/26 06:40:49;;;;;;;0.88;0.88;;;;;;;;;;5013002;28;20045;-85
2023/01/26 06:43:17;;;;;;;1.23;1.20;;;;;;;;;;5013012;28;20053;-84
2023/01/26 06:45:45;;;;;;;0.90;0.88;;;;;;;;;;5012585;28;20111;-84
2023/01/26 06:48:12;;;;;;;0.73;0.73;;;;;;;;;;5012565;28;20514;-84
2023/01/26 06:50:39;;;;;;;1.52;0.98;;;;;;;;;;5012616;28;20050;-85
2023/01/26 06:53:24;;;;;;;3.38;3.08;;;;;;;;;;5012682;28;20447;-84
2023/01/26 06:55:50;;;;;;;2.53;2.00;;;;;;;;;;5012407;28;20050;-84
2023/01/26 06:58:18;;;;;;;2.00;1.90;;;;;;;;;;5012236;28;20574;-84
2023/01/26 07:00:45;;;;;;;0.70;0.70;;;;;;;;;;5013012;28;20045;-84
2023/01/26 07:03:11;;;;;;;3.13;2.47;;;;;;;;;;5012402;28;20054;-84
2023/01/26 07:05:38;;;;;;;1.52;1.10;;;;;;;;;;5012509;28;20108;-84
2023/01/26 07:08:07;;;;;;;2.50;2.40;;;;;;;;;;5012543;28;20049;-85
2023/01/26 07:10:33;;;;;;;2.88;2.67;;;;;;;;;;5012574;28;20046;-84
2023/01/26 07:13:00;;;;;;;2.38;2.25;;;;;;;;;;5012211;28;20049;-85
2023/01/26 07:15:28;;;;;;;1.15;1.05;;;;;;;;;;5012207;28;20561;-87
2023/01/26 07:17:54;;;;;;;1.95;1.85;;;;;;;;;;5012407;28;20084;-84
2023/01/26 07:20:23;;;;;;;4.30;4.10;;;;;;;;;;5012094;28;20456;-84
2023/01/26 07:22:51;;;;;;;1.02;0.90;;;;;;;;;;5014602;28;20068;-85
2023/01/26 07:25:18;;;;;;;0.77;0.77;;;;;;;;;;5012817;28;20042;-84
2023/01/26 07:27:45;;;;;;;0.82;0.82;;;;;;;;;;5013798;28;20057;-84
2023/01/26 07:30:13;;;;;;;1.60;1.50;;;;;;;;;;5016187;28;20050;-85
2023/01/26 07:32:40;;;;;;;1.65;1.55;;;;;;;;;;5016082;28;20054;-84
2023/01/26 07:35:08;;;;;;;1.52;1.42;;;;;;;;;;5015977;28;20108;-83
2023/01/26 07:37:34;;;;;;;0.93;0.93;;;;;;;;;;5016073;28;20045;-85
2023/01/26 07:40:00;;;;;;;1.52;1.45;;;;;;;;;;5016166;28;20104;-84
2023/01/26 07:42:29;;;;;;;1.20;1.20;;;;;;;;;;5015753;28;20124;-84
2023/01/26 07:44:56;;;;;;;2.75;2.58;;;;;;;;;;5016427;28;20073;-84
2023/01/26 07:47:22;;;;;;;2.92;2.72;;;;;;;;;;5024439;28;20054;-84
2023/01/26 07:49:50;;;;;;;1.50;1.40;;;;;;;;;;5016901;28;20438;-84
2023/01/26 07:52:17;;;;;;;2.30;2.20;;;;;;;;;;5016148;28;20495;-85
2023/01/26 07:54:43;;;;;;;5.43;3.15;;;;;;;;;;5017355;28;20050;-84
2023/01/26 07:57:10;;;;;;;2.40;1.75;;;;;;;;;;5016446;28;20046;-85
2023/01/26 07:59:36;;;;;;;3.10;2.90;;;;;;;;;;5015645;28;20080;-85
2023/01/26 08:02:03;;;;;;;0.93;0.93;;;;;;;;;;5016003;28;20218;-86
2023/01/26 08:04:29;;;;;;;2.10;1.52;;;;;;;;;;5015953;28;20077;-85
2023/01/26 08:06:57;;;;;;;2.45;2.25;;;;;;;;;;5015704;28;20046;-84
2023/01/26 08:09:25;;;;;;;1.75;1.60;;;;;;;;;;5015267;28;20458;-84
2023/01/26 08:11:51;;;;;;;2.85;1.58;;;;;;;;;;5015491;28;20050;-84
2023/01/26 08:14:18;;;;;;;2.20;2.00;;;;;;;;;;5015031;28;20104;-85
2023/01/26 08:16:45;;;;;;;1.33;1.23;;;;;;;;;;5015774;28;20050;-83
2023/01/26 08:19:11;;;;;;;1.02;0.95;;;;;;;;;;5015496;28;20618;-83
2023/01/26 08:21:38;;;;;;;1.20;1.15;;;;;;;;;;5015093;28;20046;-83
2023/01/26 08:24:06;;;;;;;0.82;0.80;;;;;;;;;;5014922;28;20101;-84
2023/01/26 08:26:32;;;;;;;2.25;1.38;;;;;;;;;;5014906;28;20054;-84
2023/01/26 08:28:59;;;;;;;1.90;1.80;;;;;;;;;;5015700;28;20054;-87
2023/01/26 08:31:26;;;;;;;1.63;1.52;;;;;;;;;;5018398;28;20112;-87
2023/01/26 08:33:54;;;;;;;0.98;0.88;;;;;;;;;;5017890;28;20108;-85
2023/01/26 08:36:20;;;;;;;1.73;1.40;;;;;;;;;;5018222;28;20042;-89
2023/01/26 08:38:47;;;;;;;2.42;2.30;;;;;;;;;;5018553;28;20054;-87
2023/01/26 08:41:15;;;;;;;2.92;2.72;;;;;;;;;;5017821;28;20054;-87
2023/01/26 08:43:48;;;;;;;1.60;1.50;;;;;;;;;;5022924;28;20049;-89
2023/01/26 08:46:17;;;;;;;1.38;1.27;;;;;;;;;;5022007;28;20104;-88
2023/01/26 08:48:43;;;;;;;1.65;1.55;;;;;;;;;;5024887;28;20109;-90
2023/01/26 08:51:10;;;;;;;3.03;2.83;;;;;;;;;;4997155;28;20050;-87
2023/01/26 08:53:36;;;;;;;1.85;1.75;;;;;;;;;;4996034;28;20046;-87
2023/01/26 08:56:03;;;;;;;2.45;1.92;;;;;;;;;;4996430;28;20100;-88
2023/01/26 08:58:32;;;;;;;2.80;2.60;;;;;;;;;;4994931;28;20053;-88
2023/01/26 09:00:59;;;;;;;1.65;1.55;;;;;;;;;;4998690;28;20133;-88
2023/01/26 09:03:25;;;;;;;1.98;1.88;;;;;;;;;;4998276;28;20636;-89
2023/01/26 09:05:52;;;;;;;2.83;2.58;;;;;;;;;;4996283;28;20570;-89
2023/01/26 09:08:18;;;;;;;2.55;2.13;;;;;;;;;;4998792;28;20053;-88
2023/01/26 09:10:45;;;;;;;0.70;0.70;;;;;;;;;;4994857;28;20495;-88
2023/01/26 09:13:11;;;;;;;1.75;1.65;;;;;;;;;;4998526;28;20079;-88
2023/01/26 09:18:27;;;;;;;3.10;2.80;;;;;;;;;;4999452;28;20126;-87
2023/01/26 09:20:54;;;;;;;3.28;2.63;;;;;;;;;;4994823;28;20114;-87
2023/01/26 09:23:21;;;;;;;1.70;1.60;;;;;;;;;;4995811;28;20062;-87
2023/01/26 09:25:52;;;;;;;2.75;1.77;;;;;;;;;;4994561;28;20065;-87
2023/01/26 09:28:19;;;;;;;3.33;3.13;;;;;;;;;;4994258;28;20050;-87
2023/01/26 09:30:46;;;;;;;2.20;2.10;;;;;;;;;;4994466;28;20057;-87
2023/01/26 09:33:13;;;;;;;1.33;1.25;;;;;;;;;;4994634;28;20106;-87
2023/01/26 09:35:39;;;;;;;2.83;2.25;;;;;;;;;;4994824;28;20054;-87
2023/01/26 09:38:06;;;;;;;3.00;2.80;;;;;;;;;;4994372;28;20109;-87
2023/01/26 09:40:37;;;;;;;1.75;1.65;;;;;;;;;;4994906;28;20050;-87
2023/01/26 09:43:04;;;;;;;;;;;;;;;;;;4994589;28;20409;-87
2023/01/26 09:45:33;;;;;;;1.50;1.40;;;;;;;;;;4994501;28;20398;-87
2023/01/26 09:48:09;;;;;;;2.60;2.40;;;;;;;;;;4994846;28;20054;-87
2023/01/26 09:50:37;;;;;;;3.47;3.28;;;;;;;;;;4993872;28;20487;-87
2023/01/26 09:53:06;;;;;;;3.72;3.13;;;;;;;;;;4994824;28;20042;-87
2023/01/26 09:55:33;;;;;;;3.55;3.00;;;;;;;;;;4994428;28;20046;-87
2023/01/26 09:58:01;;;;;;;0.77;0.77;;;;;;;;;;4994218;28;20080;-87
2023/01/26 10:00:29;;;;;;;3.72;3.53;;;;;;;;;;4994287;28;20050;-87
2023/01/26 10:03:03;;;;;;;2.88;2.53;;;;;;;;;;4994688;28;20054;-87
2023/01/26 10:05:37;;;;;;;3.78;3.58;;;;;;;;;;4995273;28;20046;-88
2023/01/26 10:08:04;;;;;;;1.45;1.35;;;;;;;;;;4994262;28;20100;-87
2023/01/26 10:10:32;;;;;;;2.15;2.05;;;;;;;;;;4994515;28;20551;-87
2023/01/26 10:12:59;;;;;;;4.25;3.95;;;;;;;;;;4995276;28;20053;-87
2023/01/26 10:15:29;;;;;;;2.33;2.13;;;;;;;;;;4994733;28;20050;-87
2023/01/26 10:17:56;;;;;;;1.73;1.63;;;;;;;;;;4995068;28;20110;-87
2023/01/26 10:20:27;;;;;;;2.25;2.15;;;;;;;;;;4994168;28;20447;-86
2023/01/26 10:22:56;;;;;;;2.85;2.65;;;;;;;;;;4994683;28;20050;-87
2023/01/26 10:25:27;;;;;;;3.97;3.67;;;;;;;;;;4994142;28;20105;-87
2023/01/26 10:27:54;;;;;;;2.45;2.28;;;;;;;;;;4994058;28;20504;-87
2023/01/26 10:30:21;;;;;;;3.78;2.35;;;;;;;;;;4993977;28;20113;-87
2023/01/26 10:32:50;;;;;;;3.78;3.08;;;;;;;;;;4993952;28;20050;-88
2023/01/26 10:35:18;;;;;;;3.92;3.63;;;;;;;;;;4993790;28;20054;-87
2023/01/26 10:37:44;;;;;;;2.22;2.13;;;;;;;;;;4994074;28;20124;-87
2023/01/26 10:40:12;;;;;;;2.78;2.60;;;;;;;;;;4993892;28;20109;-88
2023/01/26 10:42:39;;;;;;;1.35;1.25;;;;;;;;;;4993685;28;20050;-87
2023/01/26 10:45:07;;;;;;;1.25;1.25;;;;;;;;;;4994041;28;20097;-88
2023/01/26 10:47:33;;;;;;;4.18;2.63;;;;;;;;;;4993301;28;20046;-87
2023/01/26 10:50:15;;;;;;;3.35;3.03;;;;;;;;;;4993936;28;20046;-87
2023/01/26 10:52:56;;;;;;;2.47;2.28;;;;;;;;;;4993883;28;20054;-87
2023/01/26 10:55:24;;;;;;;1.42;1.33;;;;;;;;;;4993899;28;20550;-87
2023/01/26 10:57:50;;;;;;;2.95;2.75;;;;;;;;;;4993879;28;20054;-87
2023/01/26 11:00:23;;;;;;;2.65;2.45;;;;;;;;;;4993182;28;20495;-87
2023/01/26 11:02:50;;;;;;;2.63;2.42;;;;;;;;;;4996092;28;20046;-87
2023/01/26 11:05:20;;;;;;;4.95;3.75;;;;;;;;;;4997246;28;20058;-87
2023/01/26 11:07:48;;;;;;;1.77;1.30;;;;;;;;;;4997844;28;20046;-87
2023/01/26 11:10:18;;;;;;;2.55;2.38;;;;;;;;;;4996969;28;20059;-87
2023/01/26 11:12:46;;;;;;;3.28;2.97;;;;;;;;;;4997036;28;20101;-87
2023/01/26 11:15:16;;;;;;;3.35;3.13;;;;;;;;;;4997292;28;20101;-86
2023/01/26 11:17:45;;;;;;;3.35;3.15;;;;;;;;;;4997215;28;20459;-87
2023/01/26 11:20:26;;;;;;;3.13;2.92;;;;;;;;;;4996968;28;20050;-87
2023/01/26 11:22:58;;;;;;;1.65;1.55;;;;;;;;;;4997127;28;20050;-86
2023/01/26 11:25:26;;;;;;;3.67;3.42;;;;;;;;;;4996852;28;20696;-86
2023/01/26 11:28:04;;;;;;;4.00;3.72;;;;;;;;;;4997564;28;20050;-87
2023/01/26 11:30:40;;;;;;;2.72;2.58;;;;;;;;;;4997255;28;20054;-86
2023/01/26 11:33:13;;;;;;;2.97;2.78;;;;;;;;;;4996963;28;20055;-87
2023/01/26 11:35:43;;;;;;;2.17;2.08;;;;;;;;;;4997455;28;20396;-86
2023/01/26 11:38:19;;;;;;;1.60;1.50;;;;;;;;;;4996647;28;20047;-85
2023/01/26 11:40:48;;;;;;;3.15;2.95;;;;;;;;;;5004106;28;20054;-84
2023/01/26 11:43:22;;;;;;;2.33;2.22;;;;;;;;;;5015493;28;20169;-84
2023/01/26 11:46:04;;;;;;;3.95;1.48;;;;;;;;;;5015775;28;20061;-84
2023/01/26 11:48:38;;;;;;;2.78;2.58;;;;;;;;;;5016261;28;20111;-85
2023/01/26 11:51:07;;;;;;;1.83;1.73;;;;;;;;;;5015543;28;20096;-85
2023/01/26 11:53:41;;;;;;;3.05;2.85;;;;;;;;;;5015861;28;20100;-85
2023/01/26 11:56:13;;;;;;;2.88;2.67;;;;;;;;;;5015693;28;20050;-86
2023/01/26 11:58:43;;;;;;;1.02;1.02;;;;;;;;;;5015821;28;20100;-85
2023/01/26 12:01:13;;;;;;;1.77;1.67;;;;;;;;;;5015309;28;20121;-85
2023/01/26 12:03:41;;;;;;;3.53;3.33;;;;;;;;;;5015835;28;20057;-86
2023/01/26 12:06:11;;;;;;;2.13;2.03;;;;;;;;;;5015440;28;20537;-87
2023/01/26 12:08:40;;;;;;;2.00;1.83;;;;;;;;;;5010327;28;20054;-85
2023/01/26 12:11:24;;;;;;;1.95;1.85;;;;;;;;;;4995967;28;20563;-85
2023/01/26 12:14:01;;;;;;;1.95;1.85;;;;;;;;;;4994959;28;20444;-85
2023/01/26 12:16:31;;;;;;;2.53;2.33;;;;;;;;;;4995570;28;20532;-86
2023/01/26 12:19:02;;;;;;;0.80;0.77;;;;;;;;;;4995854;28;20104;-85
2023/01/26 12:21:30;;;;;;;0.70;0.70;;;;;;;;;;4995803;28;20050;-85
2023/01/26 12:23:58;;;;;;;1.77;1.67;;;;;;;;;;4995871;28;20050;-85
2023/01/26 12:26:28;;;;;;;1.90;1.80;;;;;;;;;;4995535;28;20042;-85
2023/01/26 12:28:59;;;;;;;1.23;1.23;;;;;;;;;;4995547;28;20464;-86
2023/01/26 12:31:32;;;;;;;0.70;0.60;;;;;;;;;;4995394;28;20452;-86
2023/01/26 12:34:00;;;;;;;2.90;1.20;;;;;;;;;;4995586;28;20058;-85
2023/01/26 12:36:34;;;;;;;2.63;2.28;;;;;;;;;;4995733;28;20086;-85
2023/01/26 12:39:15;;;;;;;2.38;1.48;;;;;;;;;;4995621;28;20054;-85
2023/01/26 12:41:46;;;;;;;3.13;2.47;;;;;;;;;;5008921;28;20066;-85
2023/01/26 12:44:20;;;;;;;0.70;0.70;;;;;;;;;;5015315;28;20050;-85
2023/01/26 12:46:51;;;;;;;1.67;1.58;;;;;;;;;;5014948;28;20053;-86
2023/01/26 12:49:20;;;;;;;2.58;2.45;;;;;;;;;;5014621;28;20049;-85
2023/01/26 12:51:49;;;;;;;1.90;1.80;;;;;;;;;;5014134;28;20065;-85
2023/01/26 12:54:18;;;;;;;2.85;2.65;;;;;;;;;;5014541;28;20050;-85
2023/01/26 12:56:47;;;;;;;2.38;2.17;;;;;;;;;;5014793;28;20050;-85
2023/01/26 12:59:16;;;;;;;1.63;1.52;;;;;;;;;;5014240;28;20137;-85
2023/01/26 13:01:42;;;;;;;2.28;2.03;;;;;;;;;;5014475;28;20148;-85
2023/01/26 13:04:11;;;;;;;1.83;1.42;;;;;;;;;;5014685;28;20446;-86
2023/01/26 13:06:38;;;;;;;1.75;1.65;;;;;;;;;;5004258;28;20054;-85
2023/01/26 13:09:18;;;;;;;2.38;2.17;;;;;;;;;;4995365;28;20053;-85
2023/01/26 13:11:49;;;;;;;1.55;1.45;;;;;;;;;;4994896;28;20081;-84
2023/01/26 13:14:30;;;;;;;1.92;1.83;;;;;;;;;;4994700;28;20108;-85
2023/01/26 13:16:57;;;;;;;1.83;1.73;;;;;;;;;;4994634;28;20069;-85
2023/01/26 13:19:51;;;;;;;2.38;2.28;;;;;;;;;;4994504;28;20050;-85
2023/01/26 13:22:36;;;;;;;3.38;3.03;;;;;;;;;;4994770;28;20129;-86
2023/01/26 13:25:12;;;;;;;0.75;0.75;;;;;;;;;;5015445;28;20061;-85
2023/01/26 13:27:44;;;;;;;0.85;0.85;;;;;;;;;;5016027;28;20107;-85
2023/01/26 13:30:25;;;;;;;0.88;0.45;;;;;;;;;;5014879;28;20049;-85
2023/01/26 13:32:54;;;;;;;2.13;2.03;;;;;;;;;;5014114;28;20050;-86
2023/01/26 13:35:23;;;;;;;1.73;1.63;;;;;;;;;;5014081;28;20057;-85
2023/01/26 13:37:50;;;;;;;1.75;1.65;;;;;;;;;;5014433;28;20144;-87
2023/01/26 13:40:19;;;;;;;2.22;2.13;;;;;;;;;;5014134;28;20104;-84
2023/01/26 13:42:51;;;;;;;2.45;2.35;;;;;;;;;;5014136;28;20060;-85
2023/01/26 13:45:20;;;;;;;3.10;3.00;;;;;;;;;;5014473;28;20526;-84
2023/01/26 13:47:47;;;;;;;1.35;1.25;;;;;;;;;;5014572;28;20050;-85
2023/01/26 13:50:30;;;;;;;2.10;1.98;;;;;;;;;;5008078;28;20124;-85
2023/01/26 13:52:56;;;;;;;4.03;3.83;;;;;;;;;;5008247;28;20046;-85
2023/01/26 13:55:24;;;;;;;2.05;1.95;;;;;;;;;;5013971;28;20050;-84
2023/01/26 13:58:06;;;;;;;1.27;1.08;;;;;;;;;;4996376;28;20132;-85
2023/01/26 14:00:32;;;;;;;2.15;2.05;;;;;;;;;;4993935;28;20100;-85
2023/01/26 14:02:59;;;;;;;2.40;2.30;;;;;;;;;;4994137;28;20054;-85
2023/01/26 14:05:30;;;;;;;2.72;2.63;;;;;;;;;;4994027;28;20101;-85
2023/01/26 14:07:57;;;;;;;2.47;2.00;;;;;;;;;;4993802;28;20046;-85
2023/01/26 14:10:24;;;;;;;3.53;2.58;;;;;;;;;;4993954;28;20053;-85
2023/01/26 14:12:51;;;;;;;1.60;1.50;;;;;;;;;;5010801;28;20100;-85
2023/01/26 14:15:21;;;;;;;3.35;2.92;;;;;;;;;;5013936;28;20218;-85
2023/01/26 14:17:49;;;;;;;;;;;;;;;;;;5014328;28;20057;-85
2023/01/26 14:20:21;;;;;;;1.50;1.40;;;;;;;;;;5013501;28;19921;-85
2023/01/26 14:23:02;;;;;;;1.90;1.80;;;;;;;;;;5013532;28;20057;-86
2023/01/26 14:25:30;;;;;;;3.03;2.67;;;;;;;;;;5013602;28;20100;-86
2023/01/26 14:27:57;;;;;;;4.03;3.00;;;;;;;;;;5013722;28;20123;-85
2023/01/26 14:30:26;;;;;;;2.13;1.98;;;;;;;;;;5012933;28;20447;-86
2023/01/26 14:32:56;;;;;;;4.43;2.83;;;;;;;;;;5013163;28;20046;-85
2023/01/26 14:35:23;;;;;;;2.03;1.92;;;;;;;;;;5012922;28;20054;-85
2023/01/26 14:37:49;;;;;;;3.60;3.30;;;;;;;;;;5016440;28;20145;-85
2023/01/26 14:40:20;;;;;;;3.42;3.13;;;;;;;;;;5017306;28;20161;-85
2023/01/26 14:42:49;;;;;;;3.35;3.05;;;;;;;;;;5017416;28;20066;-85
2023/01/26 14:45:16;;;;;;;2.83;2.58;;;;;;;;;;5017286;28;20050;-85
2023/01/26 14:47:44;;;;;;;2.80;2.70;;;;;;;;;;5017337;28;20466;-85
2023/01/26 14:50:13;;;;;;;1.50;1.40;;;;;;;;;;5017344;28;20100;-86
2023/01/26 14:52:43;;;;;;;2.75;2.55;;;;;;;;;;5016658;28;20085;-85
2023/01/26 14:55:13;;;;;;;3.00;2.80;;;;;;;;;;5017109;28;20148;-85
2023/01/26 14:57:40;;;;;;;1.55;1.45;;;;;;;;;;5017092;28;20462;-86
2023/01/26 15:00:20;;;;;;;3.30;2.22;;;;;;;;;;5016146;28;20049;-85
2023/01/26 15:02:48;;;;;;;3.65;3.40;;;;;;;;;;5015473;28;20049;-87
2023/01/26 15:05:16;;;;;;;2.25;2.05;;;;;;;;;;5017095;28;20100;-85
2023/01/26 15:07:43;;;;;;;3.65;2.90;;;;;;;;;;5016954;28;20077;-86
2023/01/26 15:10:25;;;;;;;2.17;1.98;;;;;;;;;;5016732;28;20053;-86
2023/01/26 15:12:56;;;;;;;1.95;1.83;;;;;;;;;;5016621;28;20495;-86
2023/01/26 15:15:26;;;;;;;2.08;1.88;;;;;;;;;;5016822;28;20202;-84
2023/01/26 15:18:00;;;;;;;2.40;1.77;;;;;;;;;;5016503;28;20050;-85
2023/01/26 15:20:40;;;;;;;2.92;2.75;;;;;;;;;;5016697;28;20053;-86
2023/01/26 15:23:27;;;;;;;2.03;1.85;;;;;;;;;;5016577;28;20108;-86
2023/01/26 15:25:54;;;;;;;0.98;0.98;;;;;;;;;;5014506;28;20104;-86
2023/01/26 15:28:24;;;;;;;4.00;3.75;;;;;;;;;;5015777;28;20462;-87
2023/01/26 15:30:53;;;;;;;1.10;1.10;;;;;;;;;;5017057;28;20129;-87
2023/01/26 15:33:53;;;;;;;2.20;2.10;;;;;;;;;;5016664;28;20108;-86
2023/01/26 15:36:25;;;;;;;1.65;1.55;;;;;;;;;;5016843;28;20466;-86
2023/01/26 15:38:52;;;;;;;2.13;1.05;;;;;;;;;;5016789;28;20050;-86
2023/01/26 15:41:18;;;;;;;4.32;4.13;;;;;;;;;;5016175;28;20524;-86